Lansing, MI (48980)

8:54 PM EDT on April 19, 2015 (GMT -0400)
(MAC) Lansing | | Change Station
CLOSE
Current Station
Personal Weather Station
Location: Lansing, MI
Elevation: 885 ft
Nearby Weather Stations

Elev 885 ft 42.74 °N, 84.66 °W | Updated 4 minutes ago

Rain
Rain
51.9 °F
Feels Like 51.9 °F
N
5.0
Wind Variable Wind from South
Gusts 6.0 mph

Today
High -- | Low -- °F
--% Chance of Precip.
Yesterday
High -- | Low -- °F
Precip. -- in
6:51 AM 8:25 PM
New Moon, 2% visible
Pressure 29.61 in
Visibility 6.0 miles
Clouds Mostly Cloudy 8000 ft
Overcast 9500 ft
Dew Point 47 °F
Humidity 82%
Rainfall 0.07 in
Snow Depth Not available.
UV 0 out of 12
Pollen 9.70 out of 12
Air Quality Not available.
Flu Activity Regional
METAR KLAN 192353Z 09011KT 6SM -RA BKN080 OVC095 11/07 A2960 RMK AO2 SLP026 P0001 60002 T01110067 10211 20111 58036

More Conditions Fewer Conditions

Pressure 29.61 in
Visibility 6.0 miles
Clouds Mostly Cloudy 8000 ft
Overcast 9500 ft
Dew Point 47 °F
Humidity 82%
Rainfall 0.07 in
Snow Depth Not available.
UV 0 out of 12
Pollen 9.70 out of 12
Air Quality Not available.
Flu Activity Regional
METAR KLAN 192353Z 09011KT 6SM -RA BKN080 OVC095 11/07 A2960 RMK AO2 SLP026 P0001 60002 T01110067 10211 20111 58036

More Conditions Fewer Conditions

10-Day Weather Forecast

Almanac

Astronomy

Apr. 19, 2015 Rise Set
Actual Time
Civil Twilight
Nautical Twilight
Astronomical Twilight
Moon
Length of Visible Light
Length of Day
Tomorrow will be .
, % of the Moon is Illuminated

Today's Extremes

State Highs State Lows

Community

WunderPhotos

Upload Photos

1,815,065 photos uploaded!

WunderBlogs® & News

Nearby

Air Quality

  Air Quality AQ Index Pollutant
Not available.

Snow Depth

Station Depth Elevation

Earthquake Activity

City Distance Mag. Time & Date
Minimum magnitude displayed is 2.5.

Coastal Water Temperatures

Place Temperature

Stations

Nearby Weather Stations

Station Location Temp. Windchill Dew Point Humidity Wind Precip. Elev Updated Type